臺東航空站 - ATIS

METAR RCFN 310930Z 16003KT 110V200 9999 VCSH FEW012 SCT016 BKN040 29/26 Q1010 NOSIG RMK A2985=

站台狀態:Offline
最後更新:2020-05-31 17:30:02